This is the latest recevied weather packets stored in our database for station/object YO8RBY-2. If no packets are shown the sender has not sent any weather packets the latest 10 day(s).
| Time | Temp. | Humidity | Pressure | Rain* | Wind** | Luminosity | Snow |
|---|---|---|---|---|---|---|---|
| 1777843629 | 13.89° C | 37% | 975 hPa | - | - | 0 W/m² | - |
| 1777841805 | 13.89° C | 37% | 975 hPa | - | - | 0 W/m² | - |
| 1777839980 | 13.89° C | 36% | 975 hPa | - | - | 0 W/m² | - |
| 1777838129 | 14.44° C | 36% | 976 hPa | - | - | 0 W/m² | - |
| 1777836305 | 14.44° C | 36% | 976 hPa | - | - | 0 W/m² | - |
| 1777834481 | 15° C | 35% | 976 hPa | - | - | 0 W/m² | - |
| 1777832657 | 16.67° C | 33% | 976 hPa | - | - | 0 W/m² | - |
| 1777827184 | 20.56° C | 24% | 976 hPa | - | - | 0 W/m² | - |
| 1777825360 | 21.67° C | 22% | 976 hPa | - | - | 0 W/m² | - |
| 1777823536 | 21.67° C | 21% | 976 hPa | - | - | 0 W/m² | - |
| 1777821713 | 24.44° C | 18% | 976 hPa | - | - | 0 W/m² | - |
| 1777819887 | 26.11° C | 16% | 976 hPa | - | - | 0 W/m² | - |
| 1777818063 | 26.67° C | 15% | 976 hPa | - | - | 0 W/m² | - |
| 1777816239 | 26.11° C | 16% | 977 hPa | - | - | 0 W/m² | - |
| 1777814415 | 25° C | 17% | 977 hPa | - | - | 0 W/m² | - |
| 1777812598 | 25.56° C | 18% | 977 hPa | - | - | 0 W/m² | - |
| 1777810766 | 26.67° C | 16% | 978 hPa | - | - | 0 W/m² | - |
| 1777808942 | 27.78° C | 16% | 978 hPa | - | - | 0 W/m² | - |
| 1777807118 | 27.78° C | 16% | 978 hPa | - | - | 0 W/m² | - |
| 1777805294 | 27.22° C | 16% | 978 hPa | - | - | 0 W/m² | - |
| 1777803470 | 25.56° C | 18% | 979 hPa | - | - | 0 W/m² | - |
| 1777801646 | 24.44° C | 19% | 979 hPa | - | - | 0 W/m² | - |
| 1777799821 | 23.33° C | 20% | 980 hPa | - | - | 0 W/m² | - |
| 1777797997 | 22.22° C | 21% | 980 hPa | - | - | 0 W/m² | - |
| 1777796173 | 20.56° C | 23% | 980 hPa | - | - | 0 W/m² | - |
* Rain since midnight (hover to see other rain measurements)
** Current wind speed in m/s (hover to see current wind gust speed)